Impacts METAR Board
IDs:

KEAU - Eau Claire/Chippewa, WI, US

Updated at: 1100 UTC 23 Jun 2018
Potential Impact None Slight Moderate High
Time 22/23Z 23/00Z 23/01Z 23/02Z 23/03Z 23/04Z 23/05Z 23/06Z 23/07Z 23/08Z 23/09Z 23/10Z 23/11Z
Temp79 79 77 70 64 60 60 59 59 58 57 56 56
Dewpt52 53 57 58 57 58 58 58 57 57 57 55 55
Altim29.81 29.80 29.79 29.78 29.78 29.78 29.79 29.80 29.80 29.81 29.78 29.78 29.78
VIS10 10 10 10 10 10 10 10 10 10 7 3 5
CIG-- -- -- -- -- -- -- -- -- -- -- -- --
CoverCLRCLRCLRCLRCLRCLRCLRCLRCLRCLRCLRCLRCLR
FltCatVFRVFRVFRVFRVFRVFRVFRVFRVFRVFRVFRMVFRMVFR
WX----------------------BRBR
WDir508060000000280000
WSpd6 6 4 0 0 0 0 0 0 3 0 0 0
WGst-- -- -- -- -- -- -- -- -- -- -- -- --
Raw hourly METARs
KEAU 222256Z 05006KT 10SM CLR 26/11 A2981 RMK AO2 SLP090 T02610111
KEAU 222356Z 08006KT 10SM CLR 26/12 A2980 RMK AO2 SLP088 T02610117 10267 20244 56011
KEAU 230056Z 06004KT 10SM CLR 25/14 A2979 RMK AO2 SLP084 T02500139
KEAU 230156Z AUTO 00000KT 10SM CLR 21/14 A2978 RMK AO2 SLP083 T02110144
KEAU 230256Z AUTO 00000KT 10SM CLR 18/14 A2978 RMK AO2 SLP082 T01780139 56006
KEAU 230356Z AUTO 00000KT 10SM CLR 16/14 A2978 RMK AO2 SLP083 T01560144
KEAU 230456Z AUTO 00000KT 10SM CLR 16/14 A2979 RMK AO2 SLP085 T01560144
KEAU 230556Z AUTO 00000KT 10SM CLR 15/14 A2980 RMK AO2 SLP088 T01500144 10261 20150 402670139 53006
KEAU 230656Z AUTO 00000KT 10SM CLR 15/14 A2980 RMK AO2 SLP089 T01500139
KEAU 230756Z AUTO 28003KT 10SM CLR 14/14 A2981 RMK AO2 SLP089 T01440139
KEAU 230856Z AUTO 00000KT 7SM CLR 14/14 A2978 RMK AO2 SLP080 T01390139 58008
KEAU 230956Z AUTO 00000KT 3SM BR CLR 13/13 A2978 RMK AO2 SLP082 T01330128
KEAU 231102Z 00000KT 5SM BR CLR 13/13 A2978 RMK AO2 T01330128



Page loaded:  11:50 UTC  |   04:50 AM Pacific  |   05:50 AM Mountain  |   06:50 AM Central  |   07:50 AM Eastern

 

ADVISORIES

FORECASTS

FORECASTS

OBSERVATIONS

USER TOOLS

ABOUT US